Time;durP1;ratioP1;P1;durP2;ratioP2;P2;SDS_P1;SDS_P2;PMS_P1;PMS_P2;Temp;Humidity;BMP_temperature;BMP_pressure;BME280_temperature;BME280_humidity;BME280_pressure;Samples;Min_cycle;Max_cycle;Signal;HPM_P1;HPM_P2
2023/01/08 00:01:25;;;;;;;;;;;;;;;4.72;77.51;97529.03;4989593;28;19925;-62
2023/01/08 00:03:53;;;;;;;;;;;;;;;4.84;77.29;97522.47;4992601;28;20291;-65
2023/01/08 00:06:21;;;;;;;;;;;;;;;4.70;77.68;97520.47;4993088;28;19933;-63
2023/01/08 00:09:15;;;;;;;;;;;;;;;4.73;77.81;97514.50;4974675;28;19926;-62
2023/01/08 00:11:44;;;;;;;;;;;;;;;4.81;77.19;97510.41;4991505;28;19937;-63
2023/01/08 00:14:12;;;;;;;;;;;;;;;4.79;77.40;97507.19;4993027;28;20421;-62
2023/01/08 00:16:41;;;;;;;;;;;;;;;4.79;77.46;97507.19;4973722;28;20020;-63
2023/01/08 00:19:10;;;;;;;;;;;;;;;4.65;77.59;97496.28;4974676;28;19930;-63
2023/01/08 00:21:38;;;;;;;;;;;;;;;4.73;77.15;97503.72;4991993;28;19926;-67
2023/01/08 00:24:06;;;;;;;;;;;;;;;4.70;77.18;97501.63;4992101;28;19926;-66
2023/01/08 00:26:37;;;;;;;;;;;;;;;4.64;77.53;97502.75;4993256;28;19945;-63
2023/01/08 00:29:07;;;;;;;;;;;;;;;4.64;77.66;97494.69;4993271;28;19930;-63
2023/01/08 00:31:35;;;;;;;;;;;;;;;4.78;77.02;97494.00;4993669;28;20523;-64
2023/01/08 00:34:03;;;;;;;;;;;;;;;4.61;77.49;97492.56;4991301;28;19930;-63
2023/01/08 00:36:31;;;;;;;;;;;;;;;4.75;76.97;97486.53;4992569;28;20276;-63
2023/01/08 00:38:59;;;;;;;;;;;;;;;4.75;76.92;97483.84;4991764;28;19933;-63
2023/01/08 00:41:28;;;;;;;;;;;;;;;4.72;76.97;97487.88;4969754;28;19930;-63
2023/01/08 00:46:48;;;;;;;;;;;;;;;4.80;77.13;97487.28;4990899;28;20004;-64
2023/01/08 00:49:16;;;;;;;;;;;;;;;4.70;76.73;97490.84;4991705;28;19925;-66
2023/01/08 00:51:44;;;;;;;;;;;;;;;4.78;76.79;97488.63;4992389;28;20269;-63
2023/01/08 00:54:13;;;;;;;;;;;;;;;4.80;76.93;97487.28;4974562;28;20017;-63
2023/01/08 00:56:41;;;;;;;;;;;;;;;4.59;77.06;97483.97;4991886;28;20343;-63
2023/01/08 00:59:09;;;;;;;;;;;;;;;4.52;77.21;97477.28;4991808;28;19926;-63
2023/01/08 01:01:37;;;;;;;;;;;;;;;4.54;77.52;97486.69;4991000;28;19926;-63
2023/01/08 01:04:07;;;;;;;;;;;;;;;4.58;77.36;97466.22;4990936;28;20284;-63
2023/01/08 01:06:35;;;;;;;;;;;;;;;4.62;77.24;97464.56;4993154;28;20603;-63
2023/01/08 01:09:03;;;;;;;;;;;;;;;4.45;77.54;97464.19;4991187;28;19972;-64
2023/01/08 01:11:31;;;;;;;;;;;;;;;4.39;77.65;97462.63;4993326;28;20291;-63
2023/01/08 01:13:59;;;;;;;;;;;;;;;4.45;77.80;97462.28;4980046;28;19933;-64
2023/01/08 01:16:28;;;;;;;;;;;;;;;4.48;77.74;97466.31;4998374;28;19933;-63
2023/01/08 01:18:57;;;;;;;;;;;;;;;4.47;77.42;97470.06;4979350;28;19930;-63
2023/01/08 01:21:28;;;;;;;;;;;;;;;4.56;77.46;97472.97;4998170;28;19933;-64
2023/01/08 01:23:56;;;;;;;;;;;;;;;4.55;77.31;97472.16;4997649;28;19965;-63
2023/01/08 01:26:24;;;;;;;;;;;;;;;4.48;77.54;97477.06;4997953;28;19948;-64
2023/01/08 01:29:16;;;;;;;;;;;;;;;4.51;77.51;97471.13;4993574;28;19926;-63
2023/01/08 01:31:45;;;;;;;;;;;;;;;4.52;77.53;97478.09;4978937;28;19926;-69
2023/01/08 01:34:13;;;;;;;;;;;;;;;4.45;77.43;97473.06;4998319;28;19930;-64
2023/01/08 01:36:43;;;;;;;;;;;;;;;4.44;77.49;97470.66;4990610;28;19941;-64
2023/01/08 01:42:02;;;;;;;;;;;;;;;4.47;77.49;97472.75;4991349;28;19977;-64
2023/01/08 01:44:35;;;;;;;;;;;;;;;4.45;77.48;97466.88;4997744;28;19932;-64
2023/01/08 01:47:04;;;;;;;;;;;;;;;4.43;77.63;97461.78;4993319;28;20395;-63
2023/01/08 01:49:32;;;;;;;;;;;;;;;4.36;77.72;97457.78;4996685;28;19926;-63
2023/01/08 01:52:26;;;;;;;;;;;;;;;4.45;77.64;97448.84;4997642;28;19941;-68
2023/01/08 01:54:56;;;;;;;;;;;;;;;4.36;77.70;97455.09;4994899;28;19930;-64
2023/01/08 01:57:25;;;;;;;;;;;;;;;4.39;77.79;97447.28;4997892;28;19933;-63
2023/01/08 02:00:18;;;;;;;;;;;;;;;4.36;78.09;97449.72;4980032;28;19932;-64
2023/01/08 02:02:46;;;;;;;;;;;;;;;4.45;77.87;97453.41;4978401;28;19926;-64
2023/01/08 02:05:14;;;;;;;;;;;;;;;4.39;77.95;97449.97;4980135;28;19926;-63
2023/01/08 02:07:43;;;;;;;;;;;;;;;4.39;77.65;97449.19;4979699;28;20375;-63
2023/01/08 02:10:13;;;;;;;;;;;;;;;4.35;77.41;97446.25;4999048;28;19980;-63
2023/01/08 02:12:41;;;;;;;;;;;;;;;4.34;77.60;97438.47;4977749;28;20398;-63
2023/01/08 02:15:37;;;;;;;;;;;;;;;4.31;77.85;97433.63;4991620;28;20749;-63
2023/01/08 02:18:12;;;;;;;;;;;;;;;4.24;78.40;97423.22;4997700;28;19926;-62
2023/01/08 02:20:40;;;;;;;;;;;;;;;4.25;78.12;97419.44;5004282;28;19929;-63
2023/01/08 02:23:10;;;;;;;;;;;;;;;4.31;78.23;97422.88;4994910;28;19929;-62
2023/01/08 02:25:55;;;;;;;;;;;;;;;4.28;77.96;97426.94;4976387;28;19937;-64
2023/01/08 02:28:26;;;;;;;;;;;;;;;4.26;77.86;97415.69;4995636;28;20258;-63
2023/01/08 02:30:54;;;;;;;;;;;;;;;4.25;78.03;97422.13;4994328;28;19937;-63
2023/01/08 02:33:22;;;;;;;;;;;;;;;4.27;77.74;97427.25;4977034;28;19972;-63
2023/01/08 02:35:52;;;;;;;;;;;;;;;4.20;78.40;97417.59;4973172;28;19933;-62
2023/01/08 02:38:20;;;;;;;;;;;;;;;4.30;77.65;97410.53;4992834;28;19937;-63
2023/01/08 02:40:55;;;;;;;;;;;;;;;4.25;77.91;97399.81;4994210;28;19926;-63
2023/01/08 02:43:25;;;;;;;;;;;;;;;4.17;78.14;97406.63;4994475;28;20024;-64
2023/01/08 02:45:54;;;;;;;;;;;;;;;4.28;78.12;97404.63;4999703;28;19933;-64
2023/01/08 02:48:23;;;;;;;;;;;;;;;4.19;78.05;97404.44;4994246;28;19980;-62
2023/01/08 02:50:53;;;;;;;;;;;;;;;4.22;77.75;97403.88;4975351;28;19972;-63
2023/01/08 02:53:22;;;;;;;;;;;;;;;4.19;78.20;97404.44;4994472;28;19981;-65
2023/01/08 02:55:51;;;;;;;;;;;;;;;4.25;77.19;97413.25;4975497;28;19926;-63
2023/01/08 02:58:20;;;;;;;;;;;;;;;4.16;78.22;97405.81;4995003;28;19957;-63
2023/01/08 03:00:49;;;;;;;;;;;;;;;3.93;78.60;97401.94;4974986;28;19933;-62
2023/01/08 03:03:18;;;;;;;;;;;;;;;4.01;78.21;97397.88;4989057;28;19994;-63
2023/01/08 03:05:49;;;;;;;;;;;;;;;3.98;78.98;97400.31;4993903;28;19933;-64
2023/01/08 03:08:17;;;;;;;;;;;;;;;4.08;78.17;97401.03;4975794;28;20402;-62
2023/01/08 03:10:48;;;;;;;;;;;;;;;4.01;78.63;97405.94;4993494;28;19930;-69
2023/01/08 03:13:21;;;;;;;;;;;;;;;4.05;78.41;97415.03;4976799;28;19926;-63
2023/01/08 03:15:57;;;;;;;;;;;;;;;4.05;78.73;97408.84;4993713;28;19932;-66
2023/01/08 03:18:28;;;;;;;;;;;;;;;4.09;78.33;97397.25;4976448;28;19933;-63
2023/01/08 03:20:56;;;;;;;;;;;;;;;4.08;78.89;97397.53;4984522;28;19949;-62
2023/01/08 03:23:23;;;;;;;;;;;;;;;4.16;78.35;97403.13;4993627;28;19933;-63
2023/01/08 03:25:54;;;;;;;;;;;;;;;4.09;78.43;97381.13;4993150;28;19930;-64
2023/01/08 03:28:23;;;;;;;;;;;;;;;4.09;78.18;97385.69;5004221;28;19933;-62
2023/01/08 03:30:53;;;;;;;;;;;;;;;4.17;78.46;97385.09;4991249;28;19933;-63
2023/01/08 03:33:21;;;;;;;;;;;;;;;4.15;78.39;97371.13;4989795;28;19926;-63
2023/01/08 03:35:51;;;;;;;;;;;;;;;4.17;78.29;97368.97;4991492;28;19940;-64
2023/01/08 03:38:20;;;;;;;;;;;;;;;4.26;78.09;97366.44;4976241;28;19930;-65
2023/01/08 03:40:48;;;;;;;;;;;;;;;4.28;77.66;97367.00;4986448;28;19930;-63
2023/01/08 03:46:11;;;;;;;;;;;;;;;4.26;77.59;97351.16;4991260;28;19980;-63
2023/01/08 03:48:39;;;;;;;;;;;;;;;4.30;77.61;97351.38;4993303;28;19926;-65
2023/01/08 03:51:08;;;;;;;;;;;;;;;4.32;77.32;97343.84;4992275;28;19926;-66
2023/01/08 03:53:40;;;;;;;;;;;;;;;4.29;77.78;97339.00;4993629;28;19930;-62
2023/01/08 03:56:08;;;;;;;;;;;;;;;4.29;77.37;97322.88;4991488;28;19926;-63
2023/01/08 03:58:38;;;;;;;;;;;;;;;4.29;77.45;97320.97;4992947;28;19972;-66
2023/01/08 04:01:07;;;;;;;;;;;;;;;4.28;77.69;97322.06;4987481;28;20438;-62
2023/01/08 04:03:36;;;;;;;;;;;;;;;4.29;77.48;97322.88;4991521;28;20049;-62
2023/01/08 04:06:04;;;;;;;;;;;;;;;4.29;77.19;97309.44;4991414;28;19925;-62
2023/01/08 04:08:34;;;;;;;;;;;;;;;4.27;77.71;97308.94;4991724;28;20132;-62
2023/01/08 04:11:02;;;;;;;;;;;;;;;4.28;77.97;97311.31;4991781;28;19926;-62
2023/01/08 04:13:30;;;;;;;;;;;;;;;4.30;77.97;97303.75;4992418;28;20134;-62
2023/01/08 04:15:59;;;;;;;;;;;;;;;4.33;77.35;97299.72;4971372;28;19933;-62
2023/01/08 04:18:27;;;;;;;;;;;;;;;4.38;77.46;97302.34;4989183;28;19930;-62
2023/01/08 04:20:57;;;;;;;;;;;;;;;4.42;77.29;97289.91;4984587;28;19937;-63
2023/01/08 04:23:25;;;;;;;;;;;;;;;4.38;77.39;97305.84;4986559;28;19933;-63
2023/01/08 04:25:52;;;;;;;;;;;;;;;4.39;76.92;97301.25;4994156;28;20295;-64
2023/01/08 04:28:20;;;;;;;;;;;;;;;4.40;76.98;97324.38;5004521;28;19934;-62
2023/01/08 04:30:49;;;;;;;;;;;;;;;4.36;77.24;97321.44;4991268;28;19926;-63
2023/01/08 04:33:16;;;;;;;;;;;;;;;4.30;77.05;97327.97;4992212;28;19926;-63
2023/01/08 04:35:45;;;;;;;;;;;;;;;4.34;77.16;97329.00;4992784;28;19930;-62
2023/01/08 04:38:14;;;;;;;;;;;;;;;4.37;77.41;97327.66;4991749;28;20599;-63
2023/01/08 04:40:42;;;;;;;;;;;;;;;4.37;77.25;97324.97;4992174;28;20346;-62
2023/01/08 04:43:35;;;;;;;;;;;;;;;4.32;77.23;97317.75;4992168;28;20400;-62
2023/01/08 04:46:06;;;;;;;;;;;;;;;4.36;77.14;97318.75;4980305;28;19972;-65
2023/01/08 04:48:34;;;;;;;;;;;;;;;4.39;77.06;97315.50;4992381;28;20402;-66
2023/01/08 04:51:03;;;;;;;;;;;;;;;4.45;77.23;97319.72;4987383;28;19926;-63
2023/01/08 04:53:42;;;;;;;;;;;;;;;4.38;76.93;97321.19;4991343;28;19969;-65
2023/01/08 04:56:10;;;;;;;;;;;;;;;4.37;77.34;97320.38;4972743;28;19988;-62
2023/01/08 04:58:39;;;;;;;;;;;;;;;4.46;76.97;97315.16;4991082;28;20348;-66
2023/01/08 05:01:11;;;;;;;;;;;;;;;4.52;77.04;97314.00;4973106;28;19933;-65
2023/01/08 05:03:39;;;;;;;;;;;;;;;4.47;76.78;97304.13;4992297;28;19932;-66
2023/01/08 05:06:09;;;;;;;;;;;;;;;4.46;77.06;97307.88;4984924;28;20284;-63
2023/01/08 05:08:39;;;;;;;;;;;;;;;4.50;76.78;97308.13;4991895;28;20272;-63
2023/01/08 05:11:07;;;;;;;;;;;;;;;4.53;77.09;97304.88;4973521;28;19992;-64
2023/01/08 05:13:35;;;;;;;;;;;;;;;4.62;76.02;97284.28;4973958;28;20015;-64
2023/01/08 05:16:04;;;;;;;;;;;;;;;4.65;75.54;97278.34;4991260;28;20017;-62
2023/01/08 05:18:32;;;;;;;;;;;;;;;4.55;76.35;97277.69;4974153;28;19926;-63
2023/01/08 05:21:02;;;;;;;;;;;;;;;4.44;76.58;97282.38;4981299;28;20000;-63
2023/01/08 05:23:29;;;;;;;;;;;;;;;4.47;76.67;97281.78;4991491;28;19926;-63
2023/01/08 05:26:03;;;;;;;;;;;;;;;4.43;77.15;97281.56;4976116;28;19926;-63
2023/01/08 05:28:31;;;;;;;;;;;;;;;4.46;76.96;97280.97;4984045;28;20169;-64
2023/01/08 05:30:59;;;;;;;;;;;;;;;4.54;76.65;97284.16;4991134;28;20388;-63
2023/01/08 05:33:29;;;;;;;;;;;;;;;4.58;76.91;97282.47;4991659;28;19941;-63
2023/01/08 05:35:57;;;;;;;;;;;;;;;4.51;76.93;97292.78;4991437;28;19926;-63
2023/01/08 05:38:25;;;;;;;;;;;;;;;4.57;76.97;97284.34;4973954;28;19926;-63
2023/01/08 05:40:53;;;;;;;;;;;;;;;4.57;76.62;97295.13;4989925;28;20390;-64
2023/01/08 05:43:25;;;;;;;;;;;;;;;4.60;75.92;97291.88;4973967;28;19938;-63
2023/01/08 05:45:53;;;;;;;;;;;;;;;4.58;76.30;97283.28;4985181;28;19934;-65
2023/01/08 05:48:21;;;;;;;;;;;;;;;4.53;76.31;97291.41;4984927;28;20357;-63
2023/01/08 05:50:50;;;;;;;;;;;;;;;4.61;76.56;97281.91;4990427;28;19929;-65
2023/01/08 05:53:21;;;;;;;;;;;;;;;4.54;76.70;97279.56;4990659;28;19933;-63
2023/01/08 05:56:14;;;;;;;;;;;;;;;4.69;76.09;97289.34;4981704;28;19932;-63
2023/01/08 05:58:43;;;;;;;;;;;;;;;4.58;76.28;97283.28;4992650;28;20290;-63
2023/01/08 06:01:14;;;;;;;;;;;;;;;4.60;76.37;97278.41;4993595;28;19930;-63
2023/01/08 06:03:42;;;;;;;;;;;;;;;4.60;76.40;97281.09;4993333;28;19926;-64
2023/01/08 06:06:10;;;;;;;;;;;;;;;4.59;76.20;97281.41;4991990;28;19926;-64
2023/01/08 06:08:38;;;;;;;;;;;;;;;4.60;75.80;97281.09;4977674;28;19933;-64
2023/01/08 06:11:07;;;;;;;;;;;;;;;4.58;76.34;97277.09;4994989;28;19926;-63
2023/01/08 06:13:36;;;;;;;;;;;;;;;4.62;76.26;97281.59;4976193;28;19926;-63
2023/01/08 06:18:58;;;;;;;;;;;;;;;4.64;75.99;97268.69;4993909;28;19937;-63
2023/01/08 06:21:26;;;;;;;;;;;;;;;4.59;76.38;97263.38;4994024;28;20302;-63
2023/01/08 06:23:54;;;;;;;;;;;;;;;4.61;76.23;97255.78;4992275;28;19933;-64
2023/01/08 06:26:48;;;;;;;;;;;;;;;4.73;75.78;97253.47;4991866;28;20821;-68
2023/01/08 06:29:20;;;;;;;;;;;;;;;4.71;76.01;97244.91;4975324;28;20302;-64
2023/01/08 06:31:49;;;;;;;;;;;;;;;4.65;76.38;97256.81;4975817;28;19926;-64
2023/01/08 06:34:17;;;;;;;;;;;;;;;4.82;75.89;97252.84;4993350;28;20359;-63
2023/01/08 06:36:44;;;;;;;;;;;;;;;4.89;75.44;97255.97;4993892;28;19956;-66
2023/01/08 06:39:38;;;;;;;;;;;;;;;4.74;75.49;97259.69;4975819;28;19926;-63
2023/01/08 06:42:06;;;;;;;;;;;;;;;4.84;75.35;97266.78;4993214;28;20395;-63
2023/01/08 06:47:28;;;;;;;;;;;;;;;4.84;75.39;97264.09;4988308;28;19930;-63
2023/01/08 06:49:59;;;;;;;;;;;;;;;4.80;75.13;97261.22;4993730;28;19926;-63
2023/01/08 06:52:27;;;;;;;;;;;;;;;4.78;75.76;97263.38;4994177;28;19929;-65
2023/01/08 06:54:55;;;;;;;;;;;;;;;4.80;75.51;97258.53;4975282;28;20014;-63
2023/01/08 06:57:24;;;;;;;;;;;;;;;4.80;75.61;97253.16;4976319;28;19933;-63
2023/01/08 06:59:51;;;;;;;;;;;;;;;4.90;74.88;97253.00;4993849;28;19949;-63
2023/01/08 07:02:45;;;;;;;;;;;;;;;4.89;75.22;97254.06;4994122;28;19936;-63
2023/01/08 07:05:13;;;;;;;;;;;;;;;4.87;75.22;97258.97;4992998;28;19926;-64
2023/01/08 07:07:43;;;;;;;;;;;;;;;4.90;75.04;97266.47;4993836;28;19937;-64
2023/01/08 07:13:29;;;;;;;;;;;;;;;4.90;74.53;97273.72;4993546;28;19926;-63
2023/01/08 07:15:57;;;;;;;;;;;;;;;4.99;74.76;97267.38;4993331;28;19926;-64
2023/01/08 07:18:26;;;;;;;;;;;;;;;4.92;74.64;97272.34;4996697;28;19926;-63
2023/01/08 07:20:54;;;;;;;;;;;;;;;5.08;74.15;97264.06;4982578;28;19930;-63
2023/01/08 07:23:22;;;;;;;;;;;;;;;5.07;73.96;97257.09;4994234;28;19930;-63
2023/01/08 07:25:50;;;;;;;;;;;;;;;5.04;74.20;97274.59;4976826;28;20008;-63
2023/01/08 07:28:19;;;;;;;;;;;;;;;5.10;74.27;97272.63;4993513;28;19926;-62
2023/01/08 07:30:47;;;;;;;;;;;;;;;5.04;74.33;97269.22;4992951;28;19932;-63
2023/01/08 07:33:14;;;;;;;;;;;;;;;5.12;74.30;97279.34;4998969;28;19949;-63
2023/01/08 07:36:08;;;;;;;;;;;;;;;5.12;74.19;97270.47;4988409;28;19926;-63
2023/01/08 07:38:36;;;;;;;;;;;;;;;5.21;73.58;97271.41;4976111;28;19933;-63
2023/01/08 07:41:05;;;;;;;;;;;;;;;5.22;73.58;97271.13;4992736;28;20666;-62
2023/01/08 07:43:34;;;;;;;;;;;;;;;5.22;73.79;97276.50;4993181;28;19930;-63
2023/01/08 07:46:54;;;;;;;;;;;;;;;5.12;73.85;97282.03;4991415;28;19956;-63
2023/01/08 07:49:22;;;;;;;;;;;;;;;5.18;73.91;97274.69;4975413;28;19933;-70
2023/01/08 07:51:52;;;;;;;;;;;;;;;5.15;73.82;97273.38;4992380;28;19933;-62
2023/01/08 07:54:21;;;;;;;;;;;;;;;5.12;74.32;97273.97;4993227;28;19925;-64
2023/01/08 07:56:49;;;;;;;;;;;;;;;5.21;74.05;97276.78;4992584;28;19934;-63
2023/01/08 07:59:16;;;;;;;;;;;;;;;5.23;73.76;97278.09;4992899;28;19956;-62
2023/01/08 08:01:45;;;;;;;;;;;;;;;5.17;74.37;97279.28;4992165;28;19933;-66
2023/01/08 08:04:18;;;;;;;;;;;;;;;5.20;74.12;97289.44;4974857;28;19930;-62
2023/01/08 08:06:46;;;;;;;;;;;;;;;5.30;73.01;97290.41;4992568;28;20259;-63
2023/01/08 08:09:15;;;;;;;;;;;;;;;5.32;72.97;97291.69;4992992;28;19937;-62
2023/01/08 08:11:43;;;;;;;;;;;;;;;5.38;73.34;97295.09;4992416;28;19936;-62
2023/01/08 08:14:12;;;;;;;;;;;;;;;5.34;73.50;97281.44;4992607;28;19926;-64
2023/01/08 08:16:40;;;;;;;;;;;;;;;5.48;73.57;97278.78;4975956;28;19930;-63
2023/01/08 08:19:08;;;;;;;;;;;;;;;5.63;72.67;97286.63;4993442;28;19933;-64
2023/01/08 08:21:36;;;;;;;;;;;;;;;5.58;72.53;97294.81;4993843;28;19932;-64
2023/01/08 08:24:05;;;;;;;;;;;;;;;5.69;72.75;97296.22;4992046;28;20394;-65
2023/01/08 08:26:35;;;;;;;;;;;;;;;5.61;72.84;97282.66;4991098;28;19936;-64
2023/01/08 08:29:04;;;;;;;;;;;;;;;5.75;72.17;97289.69;4989830;28;19926;-64
2023/01/08 08:31:32;;;;;;;;;;;;;;;5.74;72.47;97282.69;4991730;28;19926;-65
2023/01/08 08:33:59;;;;;;;;;;;;;;;5.85;72.63;97285.19;4989476;28;19926;-66
2023/01/08 08:36:28;;;;;;;;;;;;;;;5.86;71.93;97289.50;4986569;28;20036;-66
2023/01/08 08:38:56;;;;;;;;;;;;;;;5.87;72.17;97291.13;4969416;28;19933;-65
2023/01/08 08:41:23;;;;;;;;;;;;;;;5.95;71.80;97287.75;4974007;28;19930;-65
2023/01/08 08:44:17;;;;;;;;;;;;;;;5.96;71.76;97267.78;4989538;28;19994;-64
2023/01/08 08:46:46;;;;;;;;;;;;;;;5.94;72.15;97270.00;4991157;28;19934;-64
2023/01/08 08:49:15;;;;;;;;;;;;;;;6.01;71.70;97271.19;4988562;28;20318;-65
2023/01/08 08:51:42;;;;;;;;;;;;;;;5.85;72.28;97260.94;4989878;28;19937;-65
2023/01/08 08:54:11;;;;;;;;;;;;;;;5.92;71.89;97266.81;4987810;28;19926;-64
2023/01/08 08:56:39;;;;;;;;;;;;;;;5.93;71.78;97261.09;4989920;28;19961;-64
2023/01/08 08:59:08;;;;;;;;;;;;;;;6.01;71.73;97259.59;4993608;28;19926;-65
2023/01/08 09:01:36;;;;;;;;;;;;;;;5.98;72.00;97254.81;4989250;28;19926;-64
2023/01/08 09:04:06;;;;;;;;;;;;;;;6.04;71.56;97249.03;4989588;28;20346;-64
2023/01/08 09:06:33;;;;;;;;;;;;;;;6.01;71.87;97251.50;4986478;28;19934;-65
2023/01/08 09:09:01;;;;;;;;;;;;;;;6.10;71.62;97263.22;4990763;28;20376;-65
2023/01/08 09:11:29;;;;;;;;;;;;;;;6.24;71.76;97264.03;4986546;28;19933;-65
2023/01/08 09:13:57;;;;;;;;;;;;;;;6.28;71.79;97258.84;4989396;28;19926;-65
2023/01/08 09:16:25;;;;;;;;;;;;;;;6.28;71.69;97259.66;4988269;28;19945;-65
2023/01/08 09:18:53;;;;;;;;;;;;;;;6.44;71.50;97260.13;4989811;28;19937;-65
2023/01/08 09:21:23;;;;;;;;;;;;;;;6.48;71.04;97263.03;4990032;28;19984;-66
2023/01/08 09:23:50;;;;;;;;;;;;;;;6.53;70.77;97265.63;4989352;28;20277;-65
2023/01/08 09:26:20;;;;;;;;;;;;;;;6.58;71.10;97252.03;4997520;28;19941;-65
2023/01/08 09:29:12;;;;;;;;;;;;;;;6.63;70.76;97259.25;4992169;28;19926;-64
2023/01/08 09:31:40;;;;;;;;;;;;;;;6.79;70.17;97249.72;4973942;28;19925;-65
2023/01/08 09:34:08;;;;;;;;;;;;;;;6.67;70.58;97260.25;4995378;28;19926;-65
2023/01/08 09:36:37;;;;;;;;;;;;;;;6.79;70.44;97253.22;4990331;28;19934;-65
2023/01/08 09:39:05;;;;;;;;;;;;;;;6.80;70.72;97260.22;4990923;28;19926;-65
2023/01/08 09:41:34;;;;;;;;;;;;;;;6.93;70.13;97271.31;4991386;28;19945;-65
2023/01/08 09:44:06;;;;;;;;;;;;;;;7.00;69.80;97277.88;4994028;28;19936;-66
2023/01/08 09:46:39;;;;;;;;;;;;;;;7.18;69.43;97272.63;4992997;28;20019;-65
2023/01/08 09:49:07;;;;;;;;;;;;;;;7.20;69.66;97281.25;4987494;28;19933;-64
2023/01/08 09:51:36;;;;;;;;;;;;;;;7.13;69.91;97278.16;4991725;28;19925;-64
2023/01/08 09:54:06;;;;;;;;;;;;;;;7.24;69.54;97272.22;4970996;28;20295;-65
2023/01/08 09:56:35;;;;;;;;;;;;;;;7.22;69.60;97257.41;4987252;28;19956;-65
2023/01/08 09:59:03;;;;;;;;;;;;;;;7.39;69.52;97260.25;4974871;28;19943;-64
2023/01/08 10:01:34;;;;;;;;;;;;;;;7.40;69.53;97261.06;4992699;28;19941;-64
2023/01/08 10:04:04;;;;;;;;;;;;;;;7.44;69.45;97248.53;4989526;28;20020;-65
2023/01/08 10:06:31;;;;;;;;;;;;;;;7.48;69.26;97250.31;4989204;28;19933;-64
2023/01/08 10:09:02;;;;;;;;;;;;;;;7.53;69.08;97246.69;4969051;28;20391;-64
2023/01/08 10:11:39;;;;;;;;;;;;;;;7.48;69.10;97242.22;4983728;28;19940;-64
2023/01/08 10:14:08;;;;;;;;;;;;;;;7.48;69.39;97244.91;4990163;28;19972;-65
2023/01/08 10:16:36;;;;;;;;;;;;;;;7.51;69.45;97247.00;4995292;28;19926;-64
2023/01/08 10:19:04;;;;;;;;;;;;;;;7.56;70.02;97240.66;4990205;28;21680;-64
2023/01/08 10:21:33;;;;;;;;;;;;;;;7.55;69.81;97241.78;4983117;28;20379;-65
2023/01/08 10:24:01;;;;;;;;;;;;;;;7.59;70.43;97240.06;4983435;28;19929;-65
2023/01/08 10:26:37;;;;;;;;;;;;;;;7.65;71.05;97232.63;4994619;28;19926;-64
2023/01/08 10:29:06;;;;;;;;;;;;;;;7.63;70.84;97222.13;4973633;28;19929;-65
2023/01/08 10:31:38;;;;;;;;;;;;;;;7.69;71.06;97226.28;4994898;28;19945;-69
2023/01/08 10:34:09;;;;;;;;;;;;;;;7.48;71.90;97212.47;4973862;28;20383;-65
2023/01/08 10:36:39;;;;;;;;;;;;;;;7.62;71.96;97215.13;4977254;28;19949;-64
2023/01/08 10:39:08;;;;;;;;;;;;;;;7.51;72.04;97202.94;4982293;28;19930;-64
2023/01/08 10:41:38;;;;;;;;;;;;;;;7.47;72.69;97216.28;4992105;28;19940;-66
2023/01/08 10:44:08;;;;;;;;;;;;;;;7.42;72.52;97215.63;4992420;28;19945;-65
2023/01/08 10:46:37;;;;;;;;;;;;;;;7.41;72.70;97209.41;4976230;28;19938;-65
2023/01/08 10:49:06;;;;;;;;;;;;;;;7.33;73.84;97202.84;4994555;28;19933;-64
2023/01/08 10:51:34;;;;;;;;;;;;;;;7.44;73.29;97205.28;4970912;28;20029;-64
2023/01/08 10:54:12;;;;;;;;;;;;;;;7.42;74.16;97207.50;4974686;28;20592;-65
2023/01/08 10:56:42;;;;;;;;;;;;;;;7.28;74.96;97202.94;4980140;28;19926;-65
2023/01/08 10:59:17;;;;;;;;;;;;;;;7.49;74.36;97207.88;4974251;28;19926;-65
2023/01/08 11:01:46;;;;;;;;;;;;;;;7.47;74.77;97201.97;4989132;28;19933;-65
2023/01/08 11:04:16;;;;;;;;;;;;;;;7.48;74.66;97198.16;4992460;28;19934;-65
2023/01/08 11:06:48;;;;;;;;;;;;;;;7.43;74.60;97196.38;4971804;28;19965;-66
2023/01/08 11:09:17;;;;;;;;;;;;;;;7.45;74.56;97186.06;4972754;28;20391;-65
2023/01/08 11:11:47;;;;;;;;;;;;;;;7.48;75.04;97184.66;4992437;28;19926;-65
2023/01/08 11:14:16;;;;;;;;;;;;;;;7.37;75.39;97180.63;4974266;28;20376;-65
2023/01/08 11:16:44;;;;;;;;;;;;;;;7.47;75.70;97172.25;4990723;28;20008;-65
2023/01/08 11:19:16;;;;;;;;;;;;;;;7.41;75.68;97177.00;4974454;28;19926;-65
2023/01/08 11:21:54;;;;;;;;;;;;;;;7.35;76.12;97184.44;4990595;28;22178;-65
2023/01/08 11:24:22;;;;;;;;;;;;;;;7.33;76.31;97173.09;4991423;28;20459;-65
2023/01/08 11:26:52;;;;;;;;;;;;;;;7.37;76.79;97165.19;4993170;28;20398;-65
2023/01/08 11:29:23;;;;;;;;;;;;;;;7.39;76.85;97157.56;4992462;28;19933;-65
2023/01/08 11:31:53;;;;;;;;;;;;;;;7.35;77.18;97168.22;4992701;28;20386;-64
2023/01/08 11:34:22;;;;;;;;;;;;;;;7.48;77.26;97169.22;4974779;28;19933;-65
2023/01/08 11:36:51;;;;;;;;;;;;;;;7.32;77.89;97163.41;4990480;28;19933;-65
2023/01/08 11:42:18;;;;;;;;;;;;;;;7.40;77.69;97174.56;4990659;28;20041;-65
2023/01/08 11:44:48;;;;;;;;;;;;;;;7.30;77.95;97168.34;4972586;28;19926;-65
2023/01/08 11:47:20;;;;;;;;;;;;;;;7.29;78.13;97168.63;4993194;28;20383;-65
2023/01/08 11:49:55;;;;;;;;;;;;;;;7.30;78.40;97165.63;4989989;28;19926;-65
2023/01/08 11:52:29;;;;;;;;;;;;;;;7.25;78.95;97154.94;4968971;28;19980;-65
2023/01/08 11:55:06;;;;;;;;;;;;;;;7.29;78.93;97142.41;4991510;28;20331;-65
2023/01/08 11:57:37;;;;;;;;;;;;;;;7.24;79.37;97145.22;4990868;28;19936;-65
2023/01/08 12:00:12;;;;;;;;;;;;;;;7.21;79.39;97145.06;4982813;28;19926;-65
2023/01/08 12:02:50;;;;;;;;;;;;;;;7.15;79.67;97140.91;4969341;28;19933;-65
2023/01/08 12:05:33;;;;;;;;;;;;;;;7.26;79.41;97128.72;4989359;28;19926;-66
2023/01/08 12:08:03;;;;;;;;;;;;;;;7.21;79.71;97124.25;4990396;28;19930;-66
2023/01/08 12:10:33;;;;;;;;;;;;;;;7.17;80.19;97122.47;4979888;28;19948;-66
2023/01/08 12:13:35;;;;;;;;;;;;;;;7.17;80.07;97123.25;4991229;28;19933;-66
2023/01/08 12:16:06;;;;;;;;;;;;;;;7.22;79.75;97106.13;4991597;28;19926;-66
2023/01/08 12:18:36;;;;;;;;;;;;;;;7.19;80.24;97109.44;4991910;28;20367;-66
2023/01/08 12:21:06;;;;;;;;;;;;;;;7.24;80.37;97107.41;4972901;28;19936;-66
2023/01/08 12:23:39;;;;;;;;;;;;;;;7.19;80.53;97102.16;4990742;28;19926;-65
2023/01/08 12:26:12;;;;;;;;;;;;;;;7.13;80.82;97100.66;4972673;28;19992;-66
2023/01/08 12:28:55;;;;;;;;;;;;;;;7.18;80.72;97102.44;4992483;28;19933;-66
2023/01/08 12:31:29;;;;;;;;;;;;;;;7.08;81.00;97098.09;4990635;28;20380;-66
2023/01/08 12:33:58;;;;;;;;;;;;;;;7.22;80.82;97098.81;4987182;28;19925;-65
2023/01/08 12:36:28;;;;;;;;;;;;;;;7.29;80.78;97088.38;4988857;28;19926;-66
2023/01/08 12:38:58;;;;;;;;;;;;;;;7.41;80.47;97095.13;4984140;28;20379;-66
2023/01/08 12:41:26;;;;;;;;;;;;;;;7.34;80.38;97088.22;4989590;28;19930;-66
2023/01/08 12:44:19;;;;;;;;;;;;;;;7.34;80.87;97082.81;4989282;28;19930;-66
2023/01/08 12:46:48;;;;;;;;;;;;;;;7.37;80.47;97080.63;4991035;28;19925;-66
2023/01/08 12:49:18;;;;;;;;;;;;;;;7.49;80.30;97073.53;4989282;28;19968;-66
2023/01/08 12:51:48;;;;;;;;;;;;;;;7.43;80.45;97069.38;4974022;28;19930;-66
2023/01/08 12:54:17;;;;;;;;;;;;;;;7.49;80.48;97065.41;4990555;28;19925;-67
2023/01/08 12:56:49;;;;;;;;;;;;;;;7.54;80.54;97061.78;4990483;28;20395;-67
2023/01/08 12:59:20;;;;;;;;;;;;;;;7.58;80.20;97063.56;4971164;28;20407;-67
2023/01/08 13:01:51;;;;;;;;;;;;;;;7.70;79.70;97065.66;4990988;28;20038;-67
2023/01/08 13:04:19;;;;;;;;;;;;;;;7.73;79.73;97070.44;4987656;28;19926;-67
2023/01/08 13:06:52;;;;;;;;;;;;;;;7.74;80.09;97074.75;4986498;28;19926;-67
2023/01/08 13:09:21;;;;;;;;;;;;;;;7.77;79.65;97070.59;4977678;28;19934;-68
2023/01/08 13:11:51;;;;;;;;;;;;;;;7.82;79.48;97067.75;4983260;28;19925;-64
2023/01/08 13:14:19;;;;;;;;;;;;;;;7.76;79.32;97058.19;4990593;28;19926;-67
2023/01/08 13:16:47;;;;;;;;;;;;;;;7.72;79.75;97057.22;4988430;28;19957;-69
2023/01/08 13:19:26;;;;;;;;;;;;;;;7.76;79.96;97069.81;4987687;28;19980;-66
2023/01/08 13:21:55;;;;;;;;;;;;;;;7.76;79.60;97064.41;4970761;28;19956;-66
2023/01/08 13:24:25;;;;;;;;;;;;;;;7.81;79.40;97053.44;4990311;28;19960;-67
2023/01/08 13:26:55;;;;;;;;;;;;;;;7.91;79.38;97056.97;4988794;28;19944;-67
2023/01/08 13:29:25;;;;;;;;;;;;;;;7.80;79.60;97046.44;4991011;28;20303;-67
2023/01/08 13:31:53;;;;;;;;;;;;;;;7.83;79.55;97045.84;4972110;28;19949;-66
2023/01/08 13:34:22;;;;;;;;;;;;;;;7.90;79.45;97047.28;4991943;28;19975;-67
2023/01/08 13:36:59;;;;;;;;;;;;;;;7.90;79.23;97031.06;4970325;28;19965;-66